createdAt,value
2018-11-11T00:00:09.851Z,17.57
2018-11-11T00:02:38.039Z,16.57
2018-11-11T00:05:07.400Z,17.53
2018-11-11T00:07:35.545Z,17.57
2018-11-11T00:10:03.792Z,17.53
2018-11-11T00:12:31.914Z,16.87
2018-11-11T00:15:00.382Z,18.20
2018-11-11T00:17:28.522Z,17.27
2018-11-11T00:19:56.953Z,16.30
2018-11-11T00:22:25.251Z,19.40
2018-11-11T00:24:53.493Z,18.97
2018-11-11T00:27:21.642Z,19.23
2018-11-11T00:29:49.958Z,18.77
2018-11-11T00:32:18.088Z,18.97
2018-11-11T00:34:46.294Z,21.17
2018-11-11T00:37:14.755Z,20.30
2018-11-11T00:39:43.448Z,21.63
2018-11-11T00:42:11.831Z,19.17
2018-11-11T00:44:40.183Z,19.87
2018-11-11T00:47:08.594Z,21.10
2018-11-11T00:49:37.332Z,19.93
2018-11-11T00:52:06.312Z,21.23
2018-11-11T00:54:34.611Z,22.40
2018-11-11T00:57:02.759Z,22.50
2018-11-11T00:59:30.896Z,21.73
2018-11-11T01:01:59.084Z,23.43
2018-11-11T01:04:27.243Z,24.03
2018-11-11T01:06:55.372Z,23.20
2018-11-11T01:09:23.502Z,23.23
2018-11-11T01:11:51.636Z,24.67
2018-11-11T01:14:19.866Z,23.73
2018-11-11T01:16:47.997Z,22.53
2018-11-11T01:19:16.454Z,22.07
2018-11-11T01:21:44.586Z,23.30
2018-11-11T01:24:12.723Z,22.20
2018-11-11T01:26:40.861Z,23.63
2018-11-11T01:29:08.999Z,22.63
2018-11-11T01:31:37.395Z,23.70
2018-11-11T01:34:05.521Z,24.03
2018-11-11T01:36:33.661Z,24.63
2018-11-11T01:39:02.354Z,23.17
2018-11-11T01:41:30.492Z,25.50
2018-11-11T01:43:58.618Z,22.67
2018-11-11T01:46:26.784Z,24.30
2018-11-11T01:48:54.966Z,22.50
2018-11-11T01:51:23.106Z,24.10
2018-11-11T01:53:51.251Z,24.40
2018-11-11T01:56:19.393Z,24.57
2018-11-11T01:58:47.896Z,24.20
2018-11-11T02:01:16.120Z,24.73
2018-11-11T02:03:44.303Z,27.10
2018-11-11T02:06:12.477Z,28.60
2018-11-11T02:08:40.601Z,24.57
2018-11-11T02:11:08.729Z,22.70
2018-11-11T02:13:36.950Z,25.37
2018-11-11T02:16:05.927Z,24.93
2018-11-11T02:18:34.133Z,25.93
2018-11-11T02:21:02.747Z,25.37
2018-11-11T02:23:30.815Z,24.07
2018-11-11T02:25:58.987Z,22.70
2018-11-11T02:28:27.116Z,23.17
2018-11-11T02:30:55.262Z,24.60
2018-11-11T02:33:23.419Z,22.73
2018-11-11T02:35:51.549Z,24.03
2018-11-11T02:38:19.714Z,23.40
2018-11-11T02:40:47.866Z,25.80
2018-11-11T02:43:16.297Z,23.33
2018-11-11T02:45:44.429Z,22.37
2018-11-11T02:48:12.672Z,24.40
2018-11-11T02:50:40.817Z,21.60
2018-11-11T02:53:08.945Z,23.10
2018-11-11T02:55:37.104Z,23.60
2018-11-11T02:58:05.286Z,22.53
2018-11-11T03:00:33.436Z,23.10
2018-11-11T03:03:01.602Z,22.73
2018-11-11T03:05:29.802Z,24.50
2018-11-11T03:07:58.240Z,24.40
2018-11-11T03:10:26.383Z,24.77
2018-11-11T03:12:54.493Z,23.90
2018-11-11T03:15:22.664Z,23.97
2018-11-11T03:17:50.798Z,21.90
2018-11-11T03:20:19.217Z,24.43
2018-11-11T03:22:47.777Z,24.60
2018-11-11T03:25:22.342Z,24.10
2018-11-11T03:27:50.798Z,26.60
2018-11-11T03:30:18.932Z,24.93
2018-11-11T03:32:47.170Z,23.87
2018-11-11T03:35:15.460Z,24.10
2018-11-11T03:37:44.313Z,24.63
2018-11-11T03:40:14.629Z,26.50
2018-11-11T03:42:43.019Z,24.53
2018-11-11T03:45:13.550Z,25.77
2018-11-11T03:47:42.532Z,24.80
2018-11-11T03:50:11.103Z,25.40
2018-11-11T03:52:39.702Z,23.53
2018-11-11T03:55:08.151Z,23.73
2018-11-11T03:57:36.663Z,23.70
2018-11-11T04:00:05.600Z,24.27
2018-11-11T04:02:33.759Z,21.67
2018-11-11T04:05:01.886Z,25.70
2018-11-11T04:07:30.095Z,24.63
2018-11-11T04:09:58.246Z,23.67
2018-11-11T04:12:26.388Z,21.13
2018-11-11T04:14:54.517Z,23.23
2018-11-11T04:17:22.633Z,23.17
2018-11-11T04:19:50.781Z,22.20
2018-11-11T04:22:19.907Z,22.93
2018-11-11T04:24:49.399Z,21.57
2018-11-11T04:27:17.663Z,20.97
2018-11-11T04:29:45.789Z,28.07
2018-11-11T04:32:13.943Z,26.40
2018-11-11T04:34:42.924Z,27.13
2018-11-11T04:37:11.294Z,24.53
2018-11-11T04:39:40.066Z,24.77
2018-11-11T04:42:08.192Z,25.67
2018-11-11T04:44:36.350Z,23.70
2018-11-11T04:47:04.545Z,25.03
2018-11-11T04:49:32.704Z,24.73
2018-11-11T04:52:00.831Z,23.57
2018-11-11T04:54:29.093Z,22.83
2018-11-11T04:56:57.259Z,23.37
2018-11-11T04:59:25.401Z,22.10
2018-11-11T05:01:53.738Z,24.17
2018-11-11T05:04:21.876Z,22.87
2018-11-11T05:06:50.042Z,22.47
2018-11-11T05:09:18.203Z,21.63
2018-11-11T05:11:46.333Z,21.63
2018-11-11T05:14:14.557Z,21.33
2018-11-11T05:16:42.709Z,20.13
2018-11-11T05:19:11.243Z,19.63
2018-11-11T05:21:39.431Z,18.93
2018-11-11T05:24:07.637Z,19.43
2018-11-11T05:26:35.960Z,22.47
2018-11-11T05:29:04.543Z,21.60
2018-11-11T05:31:32.683Z,22.07
2018-11-11T05:34:00.939Z,23.07
2018-11-11T05:36:29.061Z,21.63
2018-11-11T05:38:57.213Z,23.77
2018-11-11T05:41:25.481Z,23.83
2018-11-11T05:43:53.611Z,22.93
2018-11-11T05:46:21.754Z,23.10
2018-11-11T05:48:49.921Z,23.23
2018-11-11T05:51:18.041Z,22.03
2018-11-11T05:53:46.214Z,20.00
2018-11-11T05:56:14.326Z,21.73
2018-11-11T05:58:42.469Z,22.23
2018-11-11T06:01:10.623Z,23.97
2018-11-11T06:03:38.777Z,24.07
2018-11-11T06:06:06.906Z,23.97
2018-11-11T06:08:35.060Z,25.03
2018-11-11T06:11:03.229Z,26.23
2018-11-11T06:13:31.459Z,26.17
2018-11-11T06:15:59.609Z,24.23
2018-11-11T06:18:27.758Z,25.40
2018-11-11T06:20:55.905Z,24.23
2018-11-11T06:23:24.048Z,23.47
2018-11-11T06:25:52.171Z,26.53
2018-11-11T06:28:20.318Z,25.90
2018-11-11T06:30:48.431Z,24.40
2018-11-11T06:33:16.569Z,25.67
2018-11-11T06:35:44.708Z,25.90
2018-11-11T06:38:12.838Z,27.10
2018-11-11T06:40:40.963Z,25.87
2018-11-11T06:43:09.094Z,25.77
2018-11-11T06:45:37.227Z,25.27
2018-11-11T06:48:05.495Z,24.07
2018-11-11T06:50:33.543Z,23.57
2018-11-11T06:53:02.042Z,23.17
2018-11-11T06:55:30.169Z,24.87
2018-11-11T06:57:58.350Z,24.67
2018-11-11T07:00:26.454Z,24.83
2018-11-11T07:03:06.234Z,22.87
2018-11-11T07:05:34.434Z,23.67
2018-11-11T07:08:02.555Z,22.93
2018-11-11T07:10:30.685Z,24.83
2018-11-11T07:12:58.823Z,24.00
2018-11-11T07:15:26.954Z,24.10
2018-11-11T07:17:55.373Z,23.27
2018-11-11T07:20:23.707Z,23.17
2018-11-11T07:22:51.841Z,21.93
2018-11-11T07:25:19.974Z,21.17
2018-11-11T07:27:48.105Z,22.93
2018-11-11T07:30:16.243Z,21.67
2018-11-11T07:32:44.389Z,23.73
2018-11-11T07:35:12.601Z,22.33
2018-11-11T07:37:40.994Z,21.23
2018-11-11T07:40:11.211Z,21.80
2018-11-11T07:42:39.386Z,20.70
2018-11-11T07:45:07.569Z,21.87
2018-11-11T07:47:35.962Z,21.37
2018-11-11T07:50:04.932Z,21.77
2018-11-11T07:52:33.074Z,22.63
2018-11-11T07:55:01.241Z,20.67
2018-11-11T07:57:29.355Z,17.47
2018-11-11T07:59:57.921Z,17.97
2018-11-11T08:02:26.069Z,16.67
2018-11-11T08:04:54.290Z,15.23
2018-11-11T08:07:22.513Z,16.33
2018-11-11T08:09:50.757Z,15.23
2018-11-11T08:12:18.893Z,13.13
2018-11-11T08:14:47.051Z,13.43
2018-11-11T08:17:15.257Z,12.03
2018-11-11T08:19:43.428Z,12.03
2018-11-11T08:22:11.600Z,12.97
2018-11-11T08:24:39.778Z,12.50
2018-11-11T08:27:07.952Z,13.43
2018-11-11T08:29:36.087Z,12.37
2018-11-11T08:32:04.766Z,13.40
2018-11-11T08:34:32.916Z,14.23
2018-11-11T08:37:01.149Z,13.13
2018-11-11T08:39:29.321Z,12.47
2018-11-11T08:41:57.442Z,13.27
2018-11-11T08:44:26.060Z,14.37
2018-11-11T08:46:54.183Z,14.37
2018-11-11T08:49:22.346Z,13.27
2018-11-11T08:51:50.968Z,13.70
2018-11-11T08:54:19.104Z,13.37
2018-11-11T08:56:47.423Z,13.57
2018-11-11T08:59:15.701Z,12.20
2018-11-11T09:01:44.157Z,13.00
2018-11-11T09:04:12.327Z,13.93
2018-11-11T09:06:40.801Z,11.67
2018-11-11T09:09:09.042Z,11.57
2018-11-11T09:11:37.897Z,12.90
2018-11-11T09:14:06.867Z,9.53
2018-11-11T09:16:36.322Z,6.10
2018-11-11T09:19:04.582Z,10.03
2018-11-11T09:21:32.900Z,10.83
2018-11-11T09:24:00.939Z,6.83
2018-11-11T09:26:29.237Z,6.00
2018-11-11T09:28:57.553Z,5.73
2018-11-11T09:31:26.224Z,5.00
2018-11-11T09:33:54.415Z,4.33
2018-11-11T09:36:22.564Z,4.00
2018-11-11T09:38:50.766Z,4.40
2018-11-11T09:41:19.664Z,4.90
2018-11-11T09:43:47.862Z,4.83
2018-11-11T09:46:15.990Z,4.80
2018-11-11T09:48:44.127Z,4.50
2018-11-11T09:51:12.583Z,4.30
2018-11-11T09:53:40.818Z,3.97
2018-11-11T09:56:09.054Z,3.33
2018-11-11T09:58:37.716Z,3.23
2018-11-11T10:01:05.823Z,3.60
2018-11-11T10:03:37.831Z,4.17
2018-11-11T10:06:22.231Z,7.07
2018-11-11T10:08:55.150Z,5.27
2018-11-11T10:11:31.103Z,5.37
2018-11-11T10:14:03.354Z,5.13
2018-11-11T10:16:40.862Z,4.83
2018-11-11T10:19:13.214Z,4.90
2018-11-11T10:21:46.916Z,5.00
2018-11-11T10:25:19.973Z,6.20
2018-11-11T10:27:55.147Z,5.50
2018-11-11T10:30:32.306Z,5.87
2018-11-11T10:33:17.205Z,7.20
2018-11-11T10:35:54.170Z,6.70
2018-11-11T10:38:29.474Z,7.47
2018-11-11T10:41:04.475Z,7.60
2018-11-11T10:43:42.913Z,7.50
2018-11-11T10:46:15.392Z,7.87
2018-11-11T10:48:47.905Z,8.50
2018-11-11T10:51:16.275Z,8.93
2018-11-11T10:53:44.821Z,8.20
2018-11-11T10:56:13.535Z,7.83
2018-11-11T10:58:41.750Z,8.40
2018-11-11T11:01:15.446Z,7.77
2018-11-11T11:03:43.666Z,6.73
2018-11-11T11:06:12.124Z,6.27
2018-11-11T11:08:45.812Z,5.90
2018-11-11T11:11:14.890Z,5.90
2018-11-11T11:13:43.741Z,6.60
2018-11-11T11:16:11.869Z,6.47
2018-11-11T11:18:41.030Z,6.00
2018-11-11T11:21:09.650Z,6.10
2018-11-11T11:23:37.829Z,5.20
2018-11-11T11:26:05.986Z,5.47
2018-11-11T11:28:34.135Z,5.90
2018-11-11T11:31:02.370Z,5.03
2018-11-11T11:33:30.582Z,3.40
2018-11-11T11:35:59.122Z,2.37
2018-11-11T11:38:27.409Z,2.00
2018-11-11T11:40:55.520Z,1.60
2018-11-11T11:43:23.749Z,1.70
2018-11-11T11:45:51.990Z,1.50
2018-11-11T11:48:20.206Z,1.83
2018-11-11T11:50:48.406Z,1.50
2018-11-11T11:53:16.757Z,1.50
2018-11-11T11:55:45.189Z,1.43
2018-11-11T11:58:16.413Z,1.20
2018-11-11T12:00:44.638Z,0.90
2018-11-11T12:03:12.871Z,1.53
2018-11-11T12:05:41.171Z,1.23
2018-11-11T12:08:09.441Z,1.10
2018-11-11T12:10:37.597Z,0.90
2018-11-11T12:13:06.091Z,0.90
2018-11-11T12:15:34.315Z,0.90
2018-11-11T12:18:02.619Z,0.93
2018-11-11T12:20:30.838Z,1.10
2018-11-11T12:22:59.645Z,1.00
2018-11-11T12:25:27.884Z,1.10
2018-11-11T12:27:56.954Z,1.00
2018-11-11T12:30:25.260Z,0.90
2018-11-11T12:32:53.502Z,0.90
2018-11-11T12:35:21.798Z,1.10
2018-11-11T12:37:49.990Z,1.07
2018-11-11T12:40:18.419Z,1.00
2018-11-11T12:42:46.513Z,0.90
2018-11-11T12:45:14.823Z,1.30
2018-11-11T12:47:42.991Z,1.00
2018-11-11T12:50:12.072Z,0.90
2018-11-11T12:52:40.409Z,0.90
2018-11-11T12:55:08.615Z,0.90
2018-11-11T12:57:37.101Z,0.97
2018-11-11T13:00:07.909Z,1.20
2018-11-11T13:02:36.171Z,1.20
2018-11-11T13:05:05.081Z,1.23
2018-11-11T13:07:33.538Z,1.00
2018-11-11T13:10:01.685Z,0.90
2018-11-11T13:12:30.008Z,1.00
2018-11-11T13:14:58.071Z,0.90
2018-11-11T13:17:26.350Z,1.10
2018-11-11T13:19:54.574Z,0.90
2018-11-11T13:22:22.841Z,1.00
2018-11-11T13:24:50.922Z,1.30
2018-11-11T13:27:19.113Z,1.00
2018-11-11T13:29:47.433Z,0.93
2018-11-11T13:32:15.714Z,1.10
2018-11-11T13:34:43.940Z,0.97
2018-11-11T13:37:12.367Z,0.90
2018-11-11T13:39:40.557Z,1.10
2018-11-11T13:42:08.741Z,1.20
2018-11-11T13:44:37.081Z,1.53
2018-11-11T13:47:05.359Z,1.30
2018-11-11T13:49:33.497Z,1.33
2018-11-11T13:52:01.661Z,1.20
2018-11-11T13:54:29.826Z,1.17
2018-11-11T13:56:57.977Z,1.27
2018-11-11T13:59:26.189Z,1.33
2018-11-11T14:01:54.331Z,1.60
2018-11-11T14:04:22.498Z,1.60
2018-11-11T14:06:50.738Z,1.13
2018-11-11T14:09:18.952Z,1.23
2018-11-11T14:11:47.091Z,1.60
2018-11-11T14:14:15.325Z,1.40
2018-11-11T14:16:43.453Z,1.30
2018-11-11T14:19:11.920Z,1.30
2018-11-11T14:21:39.755Z,1.40
2018-11-11T14:24:07.913Z,1.70
2018-11-11T14:26:36.224Z,1.80
2018-11-11T14:29:04.421Z,2.10
2018-11-11T14:31:32.643Z,1.80
2018-11-11T14:34:00.794Z,2.07
2018-11-11T14:36:28.999Z,2.13
2018-11-11T14:38:57.121Z,2.10
2018-11-11T14:41:25.358Z,2.10
2018-11-11T14:43:53.630Z,1.93
2018-11-11T14:46:22.036Z,1.60
2018-11-11T14:48:50.446Z,2.40
2018-11-11T14:51:18.713Z,2.10
2018-11-11T14:53:46.906Z,7.60
2018-11-11T14:56:15.277Z,3.60
2018-11-11T14:58:43.642Z,2.37
2018-11-11T15:01:11.908Z,5.27
2018-11-11T15:03:40.221Z,3.43
2018-11-11T15:06:08.474Z,2.90
2018-11-11T15:08:36.758Z,3.47
2018-11-11T15:11:05.195Z,3.70
2018-11-11T15:13:33.427Z,3.23
2018-11-11T15:16:01.775Z,5.50
2018-11-11T15:18:29.912Z,3.10
2018-11-11T15:24:16.643Z,3.80
2018-11-11T15:26:44.788Z,2.87
2018-11-11T15:29:13.058Z,2.80
2018-11-11T15:31:41.256Z,2.60
2018-11-11T15:34:09.463Z,3.00
2018-11-11T15:36:37.714Z,3.10
2018-11-11T15:39:08.337Z,3.60
2018-11-11T15:41:36.541Z,3.33
2018-11-11T15:44:05.028Z,3.63
2018-11-11T15:46:33.255Z,3.30
2018-11-11T15:49:01.370Z,3.37
2018-11-11T15:51:29.592Z,3.23
2018-11-11T15:53:57.826Z,3.00
2018-11-11T15:56:26.037Z,2.60
2018-11-11T15:58:54.725Z,2.97
2018-11-11T16:01:22.881Z,3.70
2018-11-11T16:03:51.092Z,2.47
2018-11-11T16:06:19.556Z,2.60
2018-11-11T16:08:47.769Z,2.30
2018-11-11T16:11:16.333Z,2.30
2018-11-11T16:13:45.298Z,2.60
2018-11-11T16:16:13.658Z,2.70
2018-11-11T16:18:41.985Z,2.60
2018-11-11T16:21:10.091Z,2.70
2018-11-11T16:23:38.358Z,2.70
2018-11-11T16:26:06.534Z,2.40
2018-11-11T16:28:34.801Z,2.47
2018-11-11T16:31:03.062Z,2.90
2018-11-11T16:33:31.354Z,3.30
2018-11-11T16:35:59.693Z,2.40
2018-11-11T16:38:28.278Z,2.50
2018-11-11T16:40:56.627Z,2.43
2018-11-11T16:43:24.902Z,2.80
2018-11-11T16:45:53.160Z,2.90
2018-11-11T16:48:21.445Z,2.87
2018-11-11T16:50:49.657Z,29.53
2018-11-11T16:53:17.957Z,29.13
2018-11-11T16:55:46.140Z,19.00
2018-11-11T16:58:14.473Z,18.17
2018-11-11T17:00:42.710Z,14.30
2018-11-11T17:03:10.946Z,10.20
2018-11-11T17:05:39.614Z,10.97
2018-11-11T17:08:07.752Z,9.07
2018-11-11T17:10:37.073Z,13.60
2018-11-11T17:13:06.922Z,12.03
2018-11-11T17:15:35.156Z,8.90
2018-11-11T17:18:03.305Z,6.90
2018-11-11T17:20:31.561Z,6.60
2018-11-11T17:23:01.200Z,5.90
2018-11-11T17:25:29.399Z,10.93
2018-11-11T17:28:04.401Z,7.43
2018-11-11T17:30:33.058Z,7.80
2018-11-11T17:33:01.812Z,9.90
2018-11-11T17:35:29.979Z,11.13
2018-11-11T17:37:58.124Z,8.10
2018-11-11T17:40:27.770Z,7.83
2018-11-11T17:42:56.501Z,6.67
2018-11-11T17:45:24.658Z,7.67
2018-11-11T17:47:53.392Z,8.53
2018-11-11T17:50:23.130Z,8.73
2018-11-11T17:52:51.287Z,9.23
2018-11-11T17:55:20.706Z,14.63
2018-11-11T17:57:48.954Z,12.10
2018-11-11T18:00:20.258Z,11.17
2018-11-11T18:02:48.672Z,10.17
2018-11-11T18:05:18.233Z,9.47
2018-11-11T18:07:48.850Z,8.57
2018-11-11T18:10:19.602Z,8.90
2018-11-11T18:12:47.931Z,10.10
2018-11-11T18:15:17.700Z,18.50
2018-11-11T18:17:45.986Z,28.93
2018-11-11T18:20:15.869Z,11.90
2018-11-11T18:22:44.341Z,8.77
2018-11-11T18:25:14.935Z,13.33
2018-11-11T18:27:43.172Z,10.13
2018-11-11T18:30:15.353Z,8.50
2018-11-11T18:32:43.610Z,8.30
2018-11-11T18:35:13.331Z,8.70
2018-11-11T18:37:41.621Z,8.43
2018-11-11T18:40:11.316Z,8.20
2018-11-11T18:42:39.418Z,8.13
2018-11-11T18:45:11.506Z,7.60
2018-11-11T18:47:39.780Z,8.80
2018-11-11T18:50:10.520Z,7.53
2018-11-11T18:52:38.824Z,7.97
2018-11-11T18:55:07.429Z,7.80
2018-11-11T18:57:35.994Z,7.53
2018-11-11T19:00:04.855Z,7.03
2018-11-11T19:02:33.256Z,7.83
2018-11-11T19:05:01.422Z,7.03
2018-11-11T19:07:29.683Z,6.93
2018-11-11T19:09:57.931Z,6.70
2018-11-11T19:12:26.046Z,7.73
2018-11-11T19:14:54.313Z,8.47
2018-11-11T19:17:22.482Z,10.20
2018-11-11T19:19:50.637Z,9.17
2018-11-11T19:22:18.762Z,9.13
2018-11-11T19:24:47.146Z,9.60
2018-11-11T19:27:15.244Z,8.77
2018-11-11T19:29:43.476Z,8.60
2018-11-11T19:32:11.731Z,8.03
2018-11-11T19:34:39.951Z,8.53
2018-11-11T19:37:08.090Z,8.00
2018-11-11T19:39:36.319Z,9.13
2018-11-11T19:42:04.607Z,8.70
2018-11-11T19:44:32.674Z,8.13
2018-11-11T19:47:03.954Z,8.37
2018-11-11T19:49:32.099Z,9.23
2018-11-11T19:52:00.250Z,9.23
2018-11-11T19:54:28.390Z,9.47
2018-11-11T19:56:56.510Z,9.27
2018-11-11T19:59:24.802Z,9.40
2018-11-11T20:01:52.946Z,9.20
2018-11-11T20:04:21.478Z,8.90
2018-11-11T20:06:49.629Z,8.70
2018-11-11T20:09:18.339Z,8.33
2018-11-11T20:11:46.652Z,7.93
2018-11-11T20:14:15.421Z,8.57
2018-11-11T20:16:43.825Z,8.30
2018-11-11T20:19:12.207Z,8.83
2018-11-11T20:21:40.390Z,8.37
2018-11-11T20:24:08.712Z,8.27
2018-11-11T20:26:36.815Z,7.67
2018-11-11T20:29:05.476Z,8.57
2018-11-11T20:31:33.707Z,8.47
2018-11-11T20:34:01.890Z,8.50
2018-11-11T20:36:30.024Z,9.17
2018-11-11T20:38:58.307Z,9.40
2018-11-11T20:41:26.470Z,10.07
2018-11-11T20:43:54.598Z,11.07
2018-11-11T20:46:22.788Z,11.90
2018-11-11T20:48:51.001Z,9.77
2018-11-11T20:51:23.087Z,8.87
2018-11-11T20:53:51.242Z,9.30
2018-11-11T20:56:19.828Z,9.67
2018-11-11T20:58:48.063Z,10.17
2018-11-11T21:01:16.266Z,11.57
2018-11-11T21:03:44.596Z,10.40
2018-11-11T21:06:13.289Z,10.43
2018-11-11T21:08:41.497Z,9.53
2018-11-11T21:11:09.864Z,10.10
2018-11-11T21:13:38.213Z,10.03
2018-11-11T21:16:06.373Z,10.73
2018-11-11T21:18:34.772Z,9.13
2018-11-11T21:21:02.901Z,9.67
2018-11-11T21:23:31.021Z,8.93
2018-11-11T21:25:59.165Z,9.53
2018-11-11T21:28:27.361Z,9.17
2018-11-11T21:30:55.563Z,8.87
2018-11-11T21:33:23.951Z,9.00
2018-11-11T21:35:53.560Z,9.67
2018-11-11T21:38:21.837Z,9.20
2018-11-11T21:40:50.180Z,9.30
2018-11-11T21:43:20.126Z,9.40
2018-11-11T21:45:49.092Z,9.30
2018-11-11T21:48:17.335Z,9.60
2018-11-11T21:50:45.670Z,10.03
2018-11-11T21:53:31.578Z,9.73
2018-11-11T21:56:00.739Z,9.37
2018-11-11T21:58:28.914Z,10.07
2018-11-11T22:00:57.117Z,8.90
2018-11-11T22:03:25.901Z,9.00
2018-11-11T22:05:54.490Z,9.50
2018-11-11T22:08:22.974Z,9.70
2018-11-11T22:10:51.582Z,9.73
2018-11-11T22:13:20.503Z,10.57
2018-11-11T22:15:48.694Z,11.00
2018-11-11T22:18:17.296Z,12.80
2018-11-11T22:20:45.465Z,10.80
2018-11-11T22:23:13.611Z,10.83
2018-11-11T22:25:41.779Z,9.83
2018-11-11T22:28:10.180Z,11.03
2018-11-11T22:30:38.247Z,9.87
2018-11-11T22:33:06.390Z,10.40
2018-11-11T22:35:34.541Z,11.13
2018-11-11T22:38:02.669Z,12.80
2018-11-11T22:40:30.797Z,13.43
2018-11-11T22:42:58.969Z,11.57
2018-11-11T22:45:27.132Z,10.43
2018-11-11T22:47:55.295Z,8.87
2018-11-11T22:50:23.475Z,9.37
2018-11-11T22:52:51.613Z,10.23
2018-11-11T22:55:19.773Z,9.93
2018-11-11T22:57:47.902Z,9.23
2018-11-11T23:00:34.921Z,8.77
2018-11-11T23:03:03.059Z,7.67
2018-11-11T23:05:31.188Z,8.13
2018-11-11T23:07:59.342Z,8.47
2018-11-11T23:10:27.470Z,8.20
2018-11-11T23:12:55.981Z,8.90
2018-11-11T23:15:24.668Z,8.97
2018-11-11T23:17:52.871Z,9.17
2018-11-11T23:20:21.562Z,10.00
2018-11-11T23:22:49.713Z,11.00
2018-11-11T23:25:18.401Z,10.90
2018-11-11T23:27:46.541Z,9.90
2018-11-11T23:30:18.735Z,10.53
2018-11-11T23:32:47.532Z,9.87
2018-11-11T23:35:15.688Z,9.60
2018-11-11T23:37:44.076Z,9.87
2018-11-11T23:40:13.476Z,10.73
2018-11-11T23:42:42.471Z,10.27
2018-11-11T23:45:10.610Z,10.03
2018-11-11T23:47:38.740Z,9.23
2018-11-11T23:50:09.166Z,10.47
2018-11-11T23:52:37.321Z,9.27
2018-11-11T23:55:07.093Z,9.60
2018-11-11T23:57:35.209Z,9.40
